Clayton, LA (71326)

6:51 PM CST on December 05, 2016 (GMT -0600)
Downtown, | | Change Station

Elev 236 ft 31.56 °N, 91.40 °W | Updated 2 minutes ago

Rain
Rain
56.8 °F
Feels Like 56.8 °F
N
4.3
Wind Variable Wind from ENE
Gusts 4.9 mph

Today
High -- | Low -- °F
--% Chance of Precip.
Yesterday
High -- | Low -- °F
Precip. -- in
Pressure 29.69 in
Visibility 9.0 miles
Clouds Mostly Cloudy 300 ft
Overcast 1100 ft
Dew Point 57 °F
Humidity 99%
Rainfall 1.39 in
Snow Depth Not available.
6:51 AM 5:02 PM
Waxing Crescent, 36% visible
METAR KHEZ 060035Z AUTO 02005KT 9SM VCTS BKN003 OVC011 12/11 A2969 RMK AO1 LTG DSNT SW TSB30
Pressure 29.69 in
Visibility 9.0 miles
Clouds Mostly Cloudy 300 ft
Overcast 1100 ft
Dew Point 57 °F
Humidity 99%
Rainfall 1.39 in
Snow Depth Not available.
6:51 AM 5:02 PM
Waxing Crescent, 36% visible
METAR KHEZ 060035Z AUTO 02005KT 9SM VCTS BKN003 OVC011 12/11 A2969 RMK AO1 LTG DSNT SW TSB30

10-Day Weather Forecast

Almanac

Astronomy

Dec. 05, 2016 Rise Set
Actual Time
Civil Twilight
Nautical Twilight
Astronomical Twilight
Moon
Length of Visible Light
Length of Day
Tomorrow will be .
, % of the Moon is Illuminated

Today's Extremes

State Highs State Lows

Community

WunderPhotos

Upload Photos

1,955,886 photos uploaded!

WunderBlog® & News

Nearby

Air Quality

  Air Quality AQ Index Pollutant
Not available.

Snow Depth

Station Depth Elevation

Earthquake Activity

City Distance Mag. Time & Date
Minimum magnitude displayed is 2.5.

Coastal Water Temperatures

Place Temperature

Stations

Nearby Weather Stations

Station Location Temp. Windchill Dew Point Humidity Wind Precip. Elev Updated Type
                   

Watches & Warnings

There are currently no watches in effect.